createdAt,value
2022-12-11T00:00:47.252Z,98215.06
2022-12-11T00:03:16.178Z,98208.16
2022-12-11T00:05:43.612Z,98209.81
2022-12-11T00:08:10.102Z,98210.00
2022-12-11T00:10:38.087Z,98198.88
2022-12-11T00:13:05.069Z,98197.81
2022-12-11T00:15:31.436Z,98189.38
2022-12-11T00:17:58.096Z,98185.13
2022-12-11T00:20:24.853Z,98196.50
2022-12-11T00:22:51.315Z,98177.75
2022-12-11T00:25:17.962Z,98169.00
2022-12-11T00:27:46.815Z,98196.84
2022-12-11T00:30:14.262Z,98183.84
2022-12-11T00:32:40.847Z,98179.81
2022-12-11T00:35:07.435Z,98171.78
2022-12-11T00:37:33.909Z,98202.00
2022-12-11T00:40:00.582Z,98200.25
2022-12-11T00:42:26.934Z,98192.63
2022-12-11T00:44:54.880Z,98201.69
2022-12-11T00:47:21.508Z,98189.38
2022-12-11T00:49:49.924Z,98162.94
2022-12-11T00:52:17.948Z,98161.38
2022-12-11T00:54:45.097Z,98178.69
2022-12-11T00:57:11.417Z,98168.59
2022-12-11T00:59:37.854Z,98160.94
2022-12-11T01:02:04.455Z,98153.19
2022-12-11T01:04:30.728Z,98143.63
2022-12-11T01:06:57.010Z,98141.47
2022-12-11T01:09:42.524Z,98127.63
2022-12-11T01:12:08.836Z,98109.59
2022-12-11T01:14:35.500Z,98129.59
2022-12-11T01:17:01.822Z,98116.78
2022-12-11T01:19:28.581Z,98131.44
2022-12-11T01:21:55.264Z,98117.63
2022-12-11T01:24:21.601Z,98116.09
2022-12-11T01:26:47.914Z,98116.22
2022-12-11T01:29:14.534Z,98118.87
2022-12-11T01:31:41.381Z,98128.38
2022-12-11T01:34:07.684Z,98127.53
2022-12-11T01:36:34.250Z,98115.81
2022-12-11T01:39:00.593Z,98106.31
2022-12-11T01:41:26.913Z,98098.31
2022-12-11T01:44:06.682Z,98099.22
2022-12-11T01:46:35.339Z,98111.69
2022-12-11T01:49:04.923Z,98080.19
2022-12-11T01:51:33.908Z,98088.06
2022-12-11T01:54:04.020Z,98080.19
2022-12-11T01:56:31.488Z,98079.97
2022-12-11T01:59:01.308Z,98069.47
2022-12-11T02:01:37.638Z,98066.94
2022-12-11T02:04:04.719Z,98076.66
2022-12-11T02:06:36.316Z,98063.75
2022-12-11T02:09:04.397Z,98060.59
2022-12-11T02:11:48.210Z,98053.38
2022-12-11T02:14:49.935Z,98022.28
2022-12-11T02:17:34.743Z,98047.78
2022-12-11T02:20:00.931Z,98025.50
2022-12-11T02:22:34.412Z,98013.56
2022-12-11T02:25:15.986Z,98030.66
2022-12-11T02:27:46.837Z,98015.41
2022-12-11T02:30:15.525Z,98011.91
2022-12-11T02:32:54.432Z,98020.56
2022-12-11T02:35:28.455Z,98003.56
2022-12-11T02:38:03.871Z,97986.19
2022-12-11T02:40:32.615Z,98018.81
2022-12-11T02:43:01.420Z,98020.56
2022-12-11T02:45:28.868Z,98011.28
2022-12-11T02:47:57.619Z,97989.06
2022-12-11T02:50:23.989Z,97969.06
2022-12-11T02:52:52.159Z,97965.94
2022-12-11T02:55:19.515Z,97962.78
2022-12-11T02:57:51.989Z,97946.50
2022-12-11T03:00:19.315Z,97940.84
2022-12-11T03:02:46.084Z,97965.94
2022-12-11T03:05:13.435Z,97949.94
2022-12-11T03:07:42.206Z,97960.91
2022-12-11T03:10:10.742Z,97948.94
2022-12-11T03:12:39.400Z,97927.44
2022-12-11T03:15:10.658Z,97955.75
2022-12-11T03:17:58.779Z,97940.38
2022-12-11T03:20:37.086Z,97925.97
2022-12-11T03:23:22.313Z,97937.94
2022-12-11T03:25:56.127Z,97955.63
2022-12-11T03:28:43.666Z,97939.66
2022-12-11T03:31:14.445Z,97922.56
2022-12-11T03:33:42.281Z,97923.59
2022-12-11T03:36:16.628Z,97922.81
2022-12-11T03:38:46.082Z,97893.44
2022-12-11T03:41:13.298Z,97906.72
2022-12-11T03:43:40.215Z,97879.50
2022-12-11T03:46:08.229Z,97916.09
2022-12-11T03:48:38.760Z,97891.53
2022-12-11T03:51:06.273Z,97903.31
2022-12-11T03:53:34.540Z,97883.69
2022-12-11T03:56:01.340Z,97879.28
2022-12-11T03:58:27.608Z,97883.53
2022-12-11T04:00:54.282Z,97884.34
2022-12-11T04:03:20.945Z,97885.97
2022-12-11T04:05:49.357Z,97871.47
2022-12-11T04:08:16.946Z,97866.31
2022-12-11T04:10:43.821Z,97837.72
2022-12-11T04:13:10.747Z,97835.78
2022-12-11T04:15:38.289Z,97842.88
2022-12-11T04:18:24.090Z,97852.81
2022-12-11T04:21:12.007Z,97866.63
2022-12-11T04:23:57.101Z,97868.38
2022-12-11T04:26:23.430Z,97874.69
2022-12-11T04:28:50.037Z,97879.84
2022-12-11T04:31:19.009Z,97899.88
2022-12-11T04:33:45.394Z,97904.94
2022-12-11T04:36:12.695Z,97897.19
2022-12-11T04:38:39.221Z,97894.09
2022-12-11T04:41:09.572Z,97892.91
2022-12-11T04:43:36.515Z,97865.13
2022-12-11T04:46:08.714Z,97884.03
2022-12-11T04:48:35.827Z,97860.13
2022-12-11T04:51:02.407Z,97859.28
2022-12-11T04:53:28.767Z,97847.22
2022-12-11T04:55:55.594Z,97856.00
2022-12-11T04:58:23.098Z,97863.03
2022-12-11T05:00:49.785Z,97834.31
2022-12-11T05:03:16.146Z,97851.91
2022-12-11T05:05:48.560Z,97856.78
2022-12-11T05:08:14.917Z,97891.25
2022-12-11T05:10:45.760Z,97922.16
2022-12-11T05:13:15.191Z,97939.50
2022-12-11T05:15:41.536Z,97951.31
2022-12-11T05:18:07.835Z,97932.81
2022-12-11T05:20:34.395Z,97935.78
2022-12-11T05:23:00.690Z,97937.84
2022-12-11T05:25:27.025Z,97940.53
2022-12-11T05:27:53.589Z,97947.44
2022-12-11T05:30:19.956Z,97957.72
2022-12-11T05:32:46.249Z,97977.62
2022-12-11T05:35:13.004Z,97963.63
2022-12-11T05:37:39.573Z,97977.84
2022-12-11T05:40:06.467Z,97979.50
2022-12-11T05:42:33.960Z,97969.69
2022-12-11T05:45:00.251Z,97946.03
2022-12-11T05:47:26.573Z,97962.62
2022-12-11T05:49:53.156Z,97962.19
2022-12-11T05:52:19.504Z,97965.66
2022-12-11T05:54:49.266Z,97971.88
2022-12-11T05:57:16.211Z,97950.06
2022-12-11T05:59:42.510Z,97941.22
2022-12-11T06:02:08.923Z,97971.44
2022-12-11T06:04:35.572Z,97972.28
2022-12-11T06:07:01.869Z,97970.62
2022-12-11T06:09:28.164Z,97935.19
2022-12-11T06:11:54.740Z,97960.31
2022-12-11T06:14:21.066Z,97961.13
2022-12-11T06:16:47.445Z,97969.69
2022-12-11T06:19:15.296Z,97961.56
2022-12-11T06:21:42.136Z,97977.44
2022-12-11T06:24:11.181Z,97975.78
2022-12-11T06:26:37.975Z,97989.34
2022-12-11T06:29:08.889Z,97976.47
2022-12-11T06:31:37.288Z,97955.41
2022-12-11T06:34:03.913Z,97987.72
2022-12-11T06:36:30.216Z,97990.41
2022-12-11T06:38:56.562Z,98003.19
2022-12-11T06:41:23.176Z,98010.09
2022-12-11T06:43:50.693Z,98028.94
2022-12-11T06:46:19.044Z,98039.25
2022-12-11T06:48:46.759Z,98036.47
2022-12-11T06:51:15.312Z,98041.72
2022-12-11T06:53:41.847Z,98037.38
2022-12-11T06:56:13.563Z,98046.66
2022-12-11T06:58:40.900Z,98033.81
2022-12-11T07:01:16.028Z,98043.66
2022-12-11T07:03:42.443Z,98057.06
2022-12-11T07:06:09.289Z,98053.06
2022-12-11T07:08:35.649Z,98073.97
2022-12-11T07:11:06.421Z,98078.41
2022-12-11T07:13:33.768Z,98086.22
2022-12-11T07:16:01.900Z,98095.53
2022-12-11T07:18:28.428Z,98104.25
2022-12-11T07:20:55.012Z,98101.09
2022-12-11T07:23:21.374Z,98105.94
2022-12-11T07:25:47.916Z,98122.09
2022-12-11T07:28:16.837Z,98137.34
2022-12-11T07:30:43.404Z,98144.38
2022-12-11T07:33:09.721Z,98162.28
2022-12-11T07:35:36.773Z,98172.59
2022-12-11T07:38:03.203Z,98195.88
2022-12-11T07:40:29.528Z,98197.72
2022-12-11T07:42:56.131Z,98202.16
2022-12-11T07:45:22.500Z,98203.19
2022-12-11T07:47:48.836Z,98194.91
2022-12-11T07:50:15.742Z,98229.97
2022-12-11T07:52:42.067Z,98219.75
2022-12-11T07:55:08.914Z,98232.81
2022-12-11T07:57:35.812Z,98241.69
2022-12-11T08:00:02.156Z,98242.19
2022-12-11T08:02:38.469Z,98248.59
2022-12-11T08:05:05.775Z,98249.22
2022-12-11T08:07:35.406Z,98259.59
2022-12-11T08:10:02.284Z,98242.56
2022-12-11T08:12:28.874Z,98253.59
2022-12-11T08:14:55.246Z,98266.28
2022-12-11T08:17:25.898Z,98294.94
2022-12-11T08:19:55.580Z,98310.31
2022-12-11T08:22:21.857Z,98320.69
2022-12-11T08:24:48.113Z,98332.66
2022-12-11T08:27:14.735Z,98333.56
2022-12-11T08:29:41.064Z,98341.22
2022-12-11T08:32:12.064Z,98358.50
2022-12-11T08:34:39.130Z,98362.63
2022-12-11T08:37:05.461Z,98363.75
2022-12-11T08:39:31.731Z,98379.84
2022-12-11T08:41:58.311Z,98383.22
2022-12-11T08:44:26.785Z,98377.87
2022-12-11T08:46:53.034Z,98397.56
2022-12-11T08:49:19.633Z,98391.50
2022-12-11T08:51:45.949Z,98395.19
2022-12-11T08:54:12.276Z,98409.53
2022-12-11T08:56:38.870Z,98390.91
2022-12-11T08:59:06.304Z,98418.91
2022-12-11T09:01:32.982Z,98423.56
2022-12-11T09:03:59.597Z,98410.16
2022-12-11T09:06:28.026Z,98431.94
2022-12-11T09:08:56.126Z,98436.63
2022-12-11T09:11:25.482Z,98445.75
2022-12-11T09:13:52.335Z,98458.25
2022-12-11T09:16:21.157Z,98465.25
2022-12-11T09:18:49.233Z,98475.38
2022-12-11T09:21:17.924Z,98475.56
2022-12-11T09:23:44.724Z,98490.47
2022-12-11T09:26:14.044Z,98492.13
2022-12-11T09:28:44.402Z,98482.19
2022-12-11T09:31:24.876Z,98485.69
2022-12-11T09:33:54.401Z,98492.31
2022-12-11T09:36:20.990Z,98494.31
2022-12-11T09:38:48.113Z,98501.97
2022-12-11T09:41:23.195Z,98497.19
2022-12-11T09:44:11.131Z,98521.38
2022-12-11T09:46:37.983Z,98516.22
2022-12-11T09:49:05.209Z,98526.34
2022-12-11T09:51:44.363Z,98533.97
2022-12-11T09:54:13.671Z,98523.59
2022-12-11T09:56:44.853Z,98549.06
2022-12-11T09:59:26.556Z,98553.56
2022-12-11T10:01:57.209Z,98550.25
2022-12-11T10:05:00.219Z,98544.47
2022-12-11T10:08:16.486Z,98555.53
2022-12-11T10:11:03.337Z,98552.72
2022-12-11T10:13:42.108Z,98561.09
2022-12-11T10:16:20.996Z,98559.06
2022-12-11T10:18:48.797Z,98561.19
2022-12-11T10:21:16.859Z,98562.47
2022-12-11T10:23:57.001Z,98564.66
2022-12-11T10:26:23.656Z,98561.88
2022-12-11T10:28:50.190Z,98566.47
2022-12-11T10:31:27.882Z,98573.09
2022-12-11T10:34:00.756Z,98567.41
2022-12-11T10:36:32.946Z,98597.28
2022-12-11T10:38:59.538Z,98594.41
2022-12-11T10:41:41.549Z,98613.13
2022-12-11T10:44:21.550Z,98613.84
2022-12-11T10:47:07.282Z,98616.22
2022-12-11T10:49:35.499Z,98626.16
2022-12-11T10:52:02.643Z,98640.75
2022-12-11T10:54:41.616Z,98635.66
2022-12-11T10:57:10.521Z,98654.75
2022-12-11T10:59:46.276Z,98651.06
2022-12-11T11:02:25.017Z,98659.53
2022-12-11T11:04:51.819Z,98652.59
2022-12-11T11:07:18.312Z,98656.59
2022-12-11T11:09:44.742Z,98658.03
2022-12-11T11:12:19.505Z,98652.66
2022-12-11T11:14:46.108Z,98667.59
2022-12-11T11:17:17.049Z,98653.38
2022-12-11T11:19:46.972Z,98671.59
2022-12-11T11:22:17.050Z,98672.50
2022-12-11T11:24:54.336Z,98648.88
2022-12-11T11:27:27.110Z,98670.06
2022-12-11T11:29:58.974Z,98669.25
2022-12-11T11:32:36.891Z,98646.91
2022-12-11T11:35:12.568Z,98673.53
2022-12-11T11:37:42.211Z,98669.81
2022-12-11T11:40:18.518Z,98673.00
2022-12-11T11:42:52.777Z,98646.53
2022-12-11T11:45:29.683Z,98681.16
2022-12-11T11:48:16.440Z,98655.78
2022-12-11T11:50:45.743Z,98688.41
2022-12-11T11:53:18.183Z,98683.75
2022-12-11T11:56:06.073Z,98686.53
2022-12-11T11:58:40.958Z,98692.38
2022-12-11T12:01:15.746Z,98700.53
2022-12-11T12:03:42.394Z,98700.84
2022-12-11T12:06:37.063Z,98712.31
2022-12-11T12:09:15.739Z,98718.00
2022-12-11T12:12:24.672Z,98716.03
2022-12-11T12:15:01.927Z,98737.97
2022-12-11T12:17:43.069Z,98739.28
2022-12-11T12:20:28.577Z,98741.75
2022-12-11T12:23:15.783Z,98736.72
2022-12-11T12:25:51.677Z,98728.84
2022-12-11T12:28:36.539Z,98737.38
2022-12-11T12:31:13.526Z,98735.44
2022-12-11T12:34:07.735Z,98731.09
2022-12-11T12:36:44.290Z,98729.56
2022-12-11T12:39:35.807Z,98723.28
2022-12-11T12:42:17.259Z,98736.28
2022-12-11T12:45:27.691Z,98738.06
2022-12-11T12:47:54.303Z,98723.03
2022-12-11T12:50:24.133Z,98743.94
2022-12-11T12:52:52.027Z,98762.41
2022-12-11T12:55:23.085Z,98773.87
2022-12-11T12:57:54.664Z,98773.53
2022-12-11T13:00:29.791Z,98798.06
2022-12-11T13:02:56.490Z,98776.13
2022-12-11T13:05:43.890Z,98791.56
2022-12-11T13:08:11.301Z,98782.59
2022-12-11T13:10:40.456Z,98760.16
2022-12-11T13:13:30.985Z,98772.75
2022-12-11T13:16:07.770Z,98774.81
2022-12-11T13:18:37.250Z,98782.13
2022-12-11T13:21:23.732Z,98791.81
2022-12-11T13:23:50.126Z,98792.19
2022-12-11T13:26:29.706Z,98802.81
2022-12-11T13:28:56.339Z,98803.38
2022-12-11T13:31:23.023Z,98805.31
2022-12-11T13:33:52.195Z,98804.50
2022-12-11T13:36:24.142Z,98798.88
2022-12-11T13:39:17.421Z,98799.44
2022-12-11T13:41:47.847Z,98798.06
2022-12-11T13:44:28.045Z,98786.91
2022-12-11T13:46:57.397Z,98809.59
2022-12-11T13:49:26.396Z,98801.12
2022-12-11T13:51:58.431Z,98803.53
2022-12-11T13:54:25.965Z,98813.13
2022-12-11T13:57:01.483Z,98834.87
2022-12-11T13:59:31.583Z,98843.09
2022-12-11T14:02:01.355Z,98840.56
2022-12-11T14:04:28.697Z,98825.19
2022-12-11T14:06:56.301Z,98837.19
2022-12-11T14:09:24.471Z,98836.16
2022-12-11T14:11:56.732Z,98825.53
2022-12-11T14:14:42.636Z,98854.31
2022-12-11T14:17:20.888Z,98869.88
2022-12-11T14:19:48.028Z,98869.97
2022-12-11T14:22:23.003Z,98881.13
2022-12-11T14:24:51.324Z,98881.13
2022-12-11T14:27:19.054Z,98871.25
2022-12-11T14:29:45.978Z,98892.53
2022-12-11T14:32:36.725Z,98875.09
2022-12-11T14:35:06.600Z,98878.88
2022-12-11T14:37:34.660Z,98863.59
2022-12-11T14:40:04.381Z,98858.72
2022-12-11T14:42:34.277Z,98847.06
2022-12-11T14:45:21.555Z,98850.84
2022-12-11T14:47:48.610Z,98855.78
2022-12-11T14:50:26.775Z,98868.22
2022-12-11T14:53:17.770Z,98886.72
2022-12-11T14:55:44.991Z,98886.00
2022-12-11T14:58:28.555Z,98871.41
2022-12-11T15:01:06.690Z,98898.16
2022-12-11T15:03:38.405Z,98902.38
2022-12-11T15:06:28.321Z,98884.09
2022-12-11T15:08:55.427Z,98899.72
2022-12-11T15:11:22.471Z,98888.50
2022-12-11T15:13:56.517Z,98912.63
2022-12-11T15:16:25.463Z,98924.84
2022-12-11T15:18:53.155Z,98932.66
2022-12-11T15:21:19.943Z,98921.19
2022-12-11T15:23:46.442Z,98943.91
2022-12-11T15:26:12.785Z,98945.62
2022-12-11T15:28:39.463Z,98916.13
2022-12-11T15:31:20.925Z,98943.38
2022-12-11T15:33:47.986Z,98949.47
2022-12-11T15:36:33.817Z,98948.81
2022-12-11T15:39:00.737Z,98953.22
2022-12-11T15:41:28.551Z,98935.38
2022-12-11T15:43:58.899Z,98941.50
2022-12-11T15:46:25.391Z,98938.75
2022-12-11T15:48:52.027Z,98932.69
2022-12-11T15:51:18.358Z,98937.84
2022-12-11T15:53:44.647Z,98932.84
2022-12-11T15:56:17.474Z,98928.88
2022-12-11T15:58:47.649Z,98950.47
2022-12-11T16:01:14.362Z,98960.78
2022-12-11T16:03:40.988Z,98971.19
2022-12-11T16:06:10.049Z,98966.09
2022-12-11T16:08:36.402Z,98972.94
2022-12-11T16:11:03.040Z,98967.94
2022-12-11T16:13:29.757Z,98971.44
2022-12-11T16:15:58.293Z,98971.78
2022-12-11T16:18:26.390Z,98967.25
2022-12-11T16:20:52.908Z,98969.84
2022-12-11T16:23:19.669Z,98977.66
2022-12-11T16:25:46.890Z,98960.28
2022-12-11T16:28:14.860Z,98982.97
2022-12-11T16:30:43.481Z,98992.44
2022-12-11T16:33:13.075Z,98983.09
2022-12-11T16:35:40.246Z,98955.63
2022-12-11T16:38:07.792Z,98985.72
2022-12-11T16:40:34.423Z,98983.56
2022-12-11T16:43:00.671Z,98973.41
2022-12-11T16:45:27.760Z,98950.13
2022-12-11T16:47:54.934Z,98987.78
2022-12-11T16:50:21.413Z,98981.81
2022-12-11T16:52:47.774Z,98956.44
2022-12-11T16:55:15.092Z,98950.22
2022-12-11T16:57:41.915Z,98980.88
2022-12-11T17:00:10.100Z,98960.12
2022-12-11T17:02:36.827Z,98970.00
2022-12-11T17:05:03.645Z,98977.72
2022-12-11T17:07:31.985Z,98973.56
2022-12-11T17:09:58.641Z,98961.94
2022-12-11T17:12:27.508Z,98972.91
2022-12-11T17:14:54.972Z,98958.44
2022-12-11T17:17:21.646Z,98947.66
2022-12-11T17:19:47.927Z,98972.31
2022-12-11T17:22:14.262Z,98986.19
2022-12-11T17:24:40.891Z,98987.94
2022-12-11T17:27:07.162Z,98991.34
2022-12-11T17:29:33.455Z,98976.19
2022-12-11T17:32:00.151Z,98991.34
2022-12-11T17:34:26.474Z,98998.31
2022-12-11T17:36:52.821Z,99000.97
2022-12-11T17:39:19.432Z,99006.88
2022-12-11T17:41:45.738Z,99003.53
2022-12-11T17:44:12.014Z,98999.31
2022-12-11T17:46:38.597Z,99001.87
2022-12-11T17:49:05.484Z,98991.12
2022-12-11T17:51:31.906Z,98994.97
2022-12-11T17:53:58.505Z,99006.12
2022-12-11T17:56:25.574Z,99001.63
2022-12-11T17:58:51.932Z,99003.37
2022-12-11T18:01:19.478Z,99005.13
2022-12-11T18:03:47.017Z,98996.13
2022-12-11T18:06:15.605Z,99002.63
2022-12-11T18:08:42.557Z,98997.47
2022-12-11T18:11:14.745Z,98991.12
2022-12-11T18:13:41.451Z,99001.13
2022-12-11T18:16:12.847Z,99000.31
2022-12-11T18:18:40.201Z,99004.94
2022-12-11T18:21:06.772Z,99005.84
2022-12-11T18:23:33.464Z,99012.34
2022-12-11T18:26:00.427Z,99031.13
2022-12-11T18:28:26.891Z,99015.25
2022-12-11T18:30:53.576Z,99028.69
2022-12-11T18:33:21.288Z,99008.41
2022-12-11T18:35:49.315Z,99005.00
2022-12-11T18:38:15.581Z,99018.25
2022-12-11T18:40:42.207Z,99017.34
2022-12-11T18:43:08.519Z,99006.00
2022-12-11T18:45:35.155Z,99028.78
2022-12-11T18:48:01.799Z,99033.84
2022-12-11T18:50:28.190Z,99032.19
2022-12-11T18:52:57.123Z,99030.53
2022-12-11T18:55:23.821Z,99039.16
2022-12-11T18:57:50.200Z,99039.31
2022-12-11T19:00:17.177Z,99029.66
2022-12-11T19:02:43.940Z,99056.44
2022-12-11T19:05:10.804Z,99056.50
2022-12-11T19:07:37.690Z,99058.19
2022-12-11T19:10:05.042Z,99062.50
2022-12-11T19:12:31.379Z,99057.28
2022-12-11T19:14:57.721Z,99030.41
2022-12-11T19:17:24.303Z,99054.75
2022-12-11T19:19:50.626Z,99038.13
2022-12-11T19:22:16.942Z,99048.47
2022-12-11T19:24:43.622Z,99040.09
2022-12-11T19:27:13.495Z,99062.56
2022-12-11T19:29:40.246Z,99064.37
2022-12-11T19:32:06.855Z,99066.94
2022-12-11T19:34:33.300Z,99069.53
2022-12-11T19:36:59.966Z,99079.03
2022-12-11T19:39:26.566Z,99076.44
2022-12-11T19:41:52.848Z,99077.34
2022-12-11T19:44:19.144Z,99054.03
2022-12-11T19:46:45.881Z,99073.72
2022-12-11T19:49:12.585Z,99078.56
2022-12-11T19:51:40.660Z,99061.28
2022-12-11T19:54:11.123Z,99095.75
2022-12-11T19:56:37.596Z,99090.47
2022-12-11T19:59:06.321Z,99106.06
2022-12-11T20:01:35.012Z,99097.50
2022-12-11T20:04:06.109Z,99079.53
2022-12-11T20:06:33.999Z,99096.75
2022-12-11T20:09:01.251Z,99089.38
2022-12-11T20:11:28.445Z,99096.28
2022-12-11T20:13:55.656Z,99113.84
2022-12-11T20:16:33.710Z,99084.31
2022-12-11T20:19:08.587Z,99092.88
2022-12-11T20:21:34.868Z,99107.78
2022-12-11T20:24:01.254Z,99107.94
2022-12-11T20:26:29.580Z,99110.38
2022-12-11T20:28:56.962Z,99100.13
2022-12-11T20:31:24.977Z,99106.06
2022-12-11T20:33:52.905Z,99106.88
2022-12-11T20:36:21.120Z,99102.53
2022-12-11T20:38:48.064Z,99103.69
2022-12-11T20:41:17.603Z,99098.69
2022-12-11T20:43:45.497Z,99099.66
2022-12-11T20:46:14.820Z,99101.19
2022-12-11T20:48:43.327Z,99097.88
2022-12-11T20:51:11.644Z,99107.84
2022-12-11T20:53:38.951Z,99102.78
2022-12-11T20:56:13.679Z,99104.53
2022-12-11T20:58:40.677Z,99078.72
2022-12-11T21:01:07.534Z,99104.66
2022-12-11T21:03:40.440Z,99092.19
2022-12-11T21:06:16.999Z,99089.84
2022-12-11T21:08:43.339Z,99097.19
2022-12-11T21:11:10.568Z,99110.50
2022-12-11T21:13:37.390Z,99079.41
2022-12-11T21:16:06.130Z,99107.84
2022-12-11T21:18:32.982Z,99113.84
2022-12-11T21:20:59.456Z,99091.28
2022-12-11T21:23:26.082Z,99101.06
2022-12-11T21:25:53.227Z,99093.37
2022-12-11T21:28:21.742Z,99112.50
2022-12-11T21:30:48.138Z,99115.22
2022-12-11T21:33:14.912Z,99093.31
2022-12-11T21:35:42.189Z,99110.38
2022-12-11T21:38:08.523Z,99121.03
2022-12-11T21:40:35.227Z,99104.22
2022-12-11T21:43:01.525Z,99121.22
2022-12-11T21:48:14.960Z,99104.91
2022-12-11T21:50:42.649Z,99145.03
2022-12-11T21:53:08.959Z,99123.16
2022-12-11T21:55:35.560Z,99133.84
2022-12-11T21:58:01.892Z,99115.38
2022-12-11T22:00:28.312Z,99125.88
2022-12-11T22:02:54.985Z,99126.81
2022-12-11T22:05:21.349Z,99131.87
2022-12-11T22:07:47.767Z,99128.84
2022-12-11T22:10:14.415Z,99119.53
2022-12-11T22:12:40.743Z,99140.34
2022-12-11T22:15:07.868Z,99147.31
2022-12-11T22:17:34.611Z,99140.81
2022-12-11T22:20:00.939Z,99138.25
2022-12-11T22:22:27.264Z,99156.03
2022-12-11T22:24:53.865Z,99135.81
2022-12-11T22:27:23.714Z,99143.53
2022-12-11T22:29:50.403Z,99164.44
2022-12-11T22:32:17.080Z,99151.25
2022-12-11T22:34:43.348Z,99148.75
2022-12-11T22:37:09.686Z,99147.91
2022-12-11T22:39:36.288Z,99159.59
2022-12-11T22:42:03.294Z,99165.59
2022-12-11T22:44:29.583Z,99163.22
2022-12-11T22:46:56.164Z,99144.06
2022-12-11T22:49:22.478Z,99160.97
2022-12-11T22:51:49.454Z,99165.41
2022-12-11T22:54:16.294Z,99172.28
2022-12-11T22:56:42.590Z,99186.06
2022-12-11T22:59:08.899Z,99164.25
2022-12-11T23:01:35.455Z,99172.53
2022-12-11T23:04:01.735Z,99186.37
2022-12-11T23:06:28.106Z,99178.09
2022-12-11T23:08:57.910Z,99184.84
2022-12-11T23:11:27.239Z,99185.59
2022-12-11T23:13:54.396Z,99180.59
2022-12-11T23:16:22.542Z,99188.41
2022-12-11T23:18:49.891Z,99188.47
2022-12-11T23:21:16.266Z,99191.03
2022-12-11T23:23:42.923Z,99191.81
2022-12-11T23:26:11.996Z,99181.38
2022-12-11T23:28:38.609Z,99198.75
2022-12-11T23:31:05.330Z,99198.75
2022-12-11T23:33:31.753Z,99180.41
2022-12-11T23:35:58.583Z,99194.59
2022-12-11T23:38:25.611Z,99198.97
2022-12-11T23:40:52.477Z,99202.41
2022-12-11T23:43:18.767Z,99178.44
2022-12-11T23:45:45.836Z,99202.44
2022-12-11T23:48:12.856Z,99204.34
2022-12-11T23:50:40.253Z,99205.34
2022-12-11T23:53:06.844Z,99208.81
2022-12-11T23:55:33.206Z,99204.34
2022-12-11T23:57:59.586Z,99211.28
